Terminal Aerodrome Forecast
Issued by NWS Jackson, MS

Home | Current Version | Previous Version | Text Only | Print | Product List | Glossary On
Versions: 1 2 3 4 5 6 7 8 9 10 11 12
000
FTUS44 KMEG 201120
TAFTUP
TAF
KTUP 201120Z 2012/2112 00000KT P6SM FEW050 FEW250
     FM201600 33004KT P6SM SCT050 SCT250
     FM210100 VRB03KT P6SM FEW050
      TEMPO 2109/2112 5SM BR=

USA.gov is the U.S. government's official web portal to all federal, state and local government web resources and services.